sensor_id;sensor_type;location;lat;lon;timestamp;temperature;humidity
69589;SHT31;56792;50.644;17.984;2023-12-28T19:17:24;3.91;83.12
69589;SHT31;56792;50.644;17.984;2023-12-28T19:19:55;3.89;82.92
69589;SHT31;56792;50.644;17.984;2023-12-28T19:22:26;3.88;82.93
69589;SHT31;56792;50.644;17.984;2023-12-28T19:24:58;3.81;82.89
69589;SHT31;56792;50.644;17.984;2023-12-28T19:27:29;3.73;82.90
69589;SHT31;56792;50.644;17.984;2023-12-28T19:30:00;3.67;82.91
69589;SHT31;56792;50.644;17.984;2023-12-28T19:32:33;3.59;83.11
69589;SHT31;56792;50.644;17.984;2023-12-28T19:35:05;3.56;83.27
69589;SHT31;56792;50.644;17.984;2023-12-28T19:37:38;3.50;83.17
69589;SHT31;56792;50.644;17.984;2023-12-28T19:40:10;3.41;83.13
69589;SHT31;56792;50.644;17.984;2023-12-28T19:42:42;3.34;83.41
69589;SHT31;56792;50.644;17.984;2023-12-28T19:45:13;3.27;83.47
69589;SHT31;56792;50.644;17.984;2023-12-28T19:47:44;3.19;83.66
69589;SHT31;56792;50.644;17.984;2023-12-28T19:50:15;3.16;84.17
69589;SHT31;56792;50.644;17.984;2023-12-28T19:52:47;3.18;84.66
69589;SHT31;56792;50.644;17.984;2023-12-28T19:55:18;3.21;84.91
69589;SHT31;56792;50.644;17.984;2023-12-28T19:57:50;3.23;84.99
69589;SHT31;56792;50.644;17.984;2023-12-28T20:00:21;3.24;85.26
69589;SHT31;56792;50.644;17.984;2023-12-28T20:02:52;3.25;85.53
69589;SHT31;56792;50.644;17.984;2023-12-28T20:05:23;3.26;85.52
69589;SHT31;56792;50.644;17.984;2023-12-28T20:07:54;3.18;85.31
69589;SHT31;56792;50.644;17.984;2023-12-28T20:10:28;3.14;85.47
69589;SHT31;56792;50.644;17.984;2023-12-28T20:13:00;3.13;85.37
69589;SHT31;56792;50.644;17.984;2023-12-28T20:15:31;3.12;85.30
69589;SHT31;56792;50.644;17.984;2023-12-28T20:18:02;3.04;85.06
69589;SHT31;56792;50.644;17.984;2023-12-28T20:20:34;2.99;85.06
69589;SHT31;56792;50.644;17.984;2023-12-28T20:23:05;2.96;84.97
69589;SHT31;56792;50.644;17.984;2023-12-28T20:25:36;2.89;84.99
69589;SHT31;56792;50.644;17.984;2023-12-28T20:28:07;2.82;85.01
69589;SHT31;56792;50.644;17.984;2023-12-28T20:30:39;2.75;85.47
69589;SHT31;56792;50.644;17.984;2023-12-28T20:33:10;2.75;85.66
69589;SHT31;56792;50.644;17.984;2023-12-28T20:35:41;2.75;85.80
69589;SHT31;56792;50.644;17.984;2023-12-28T20:38:12;2.75;85.75
69589;SHT31;56792;50.644;17.984;2023-12-28T20:40:43;2.75;85.80
69589;SHT31;56792;50.644;17.984;2023-12-28T20:43:16;2.73;85.53
69589;SHT31;56792;50.644;17.984;2023-12-28T20:45:47;2.63;85.63
69589;SHT31;56792;50.644;17.984;2023-12-28T20:48:18;2.63;85.85
69589;SHT31;56792;50.644;17.984;2023-12-28T20:50:49;2.61;86.05
69589;SHT31;56792;50.644;17.984;2023-12-28T20:53:20;2.57;85.97
69589;SHT31;56792;50.644;17.984;2023-12-28T20:55:52;2.49;85.98
69589;SHT31;56792;50.644;17.984;2023-12-28T20:58:25;2.48;86.17
69589;SHT31;56792;50.644;17.984;2023-12-28T21:00:56;2.45;86.19
69589;SHT31;56792;50.644;17.984;2023-12-28T21:03:27;2.44;86.12
69589;SHT31;56792;50.644;17.984;2023-12-28T21:05:58;2.42;86.09
69589;SHT31;56792;50.644;17.984;2023-12-28T21:08:30;2.40;86.02
69589;SHT31;56792;50.644;17.984;2023-12-28T21:11:01;2.38;86.07
69589;SHT31;56792;50.644;17.984;2023-12-28T21:13:32;2.39;86.05
69589;SHT31;56792;50.644;17.984;2023-12-28T21:16:06;2.35;85.73
69589;SHT31;56792;50.644;17.984;2023-12-28T21:18:38;2.26;85.74
69589;SHT31;56792;50.644;17.984;2023-12-28T21:21:09;2.23;85.91
69589;SHT31;56792;50.644;17.984;2023-12-28T21:23:40;2.16;85.73
69589;SHT31;56792;50.644;17.984;2023-12-28T21:26:14;2.12;85.81
69589;SHT31;56792;50.644;17.984;2023-12-28T21:28:46;2.11;85.98
69589;SHT31;56792;50.644;17.984;2023-12-28T21:31:17;2.07;86.05
69589;SHT31;56792;50.644;17.984;2023-12-28T21:33:48;2.07;86.03
69589;SHT31;56792;50.644;17.984;2023-12-28T21:36:19;2.00;85.83
69589;SHT31;56792;50.644;17.984;2023-12-28T21:38:50;1.94;86.12
69589;SHT31;56792;50.644;17.984;2023-12-28T21:41:21;1.93;86.28
69589;SHT31;56792;50.644;17.984;2023-12-28T21:43:52;1.96;86.56
69589;SHT31;56792;50.644;17.984;2023-12-28T21:46:23;1.98;86.54
69589;SHT31;56792;50.644;17.984;2023-12-28T21:48:54;2.00;86.63
69589;SHT31;56792;50.644;17.984;2023-12-28T21:51:25;2.01;86.69
69589;SHT31;56792;50.644;17.984;2023-12-28T21:53:56;2.03;86.71
69589;SHT31;56792;50.644;17.984;2023-12-28T21:56:27;2.07;86.80
69589;SHT31;56792;50.644;17.984;2023-12-28T21:58:58;2.10;86.72
69589;SHT31;56792;50.644;17.984;2023-12-28T22:01:30;2.09;86.73
69589;SHT31;56792;50.644;17.984;2023-12-28T22:04:02;2.10;86.95
69589;SHT31;56792;50.644;17.984;2023-12-28T22:06:33;2.14;87.02
69589;SHT31;56792;50.644;17.984;2023-12-28T22:09:04;2.20;87.16
69589;SHT31;56792;50.644;17.984;2023-12-28T22:11:36;2.24;87.17
69589;SHT31;56792;50.644;17.984;2023-12-28T22:14:07;2.27;87.47
69589;SHT31;56792;50.644;17.984;2023-12-28T22:16:38;2.33;87.46
69589;SHT31;56792;50.644;17.984;2023-12-28T22:19:09;2.36;87.50
69589;SHT31;56792;50.644;17.984;2023-12-28T22:21:41;2.40;87.57
69589;SHT31;56792;50.644;17.984;2023-12-28T22:24:12;2.44;87.59
69589;SHT31;56792;50.644;17.984;2023-12-28T22:26:43;2.47;87.58
69589;SHT31;56792;50.644;17.984;2023-12-28T22:29:14;2.50;87.66
69589;SHT31;56792;50.644;17.984;2023-12-28T22:31:45;2.54;87.69
69589;SHT31;56792;50.644;17.984;2023-12-28T22:34:16;2.58;87.76
69589;SHT31;56792;50.644;17.984;2023-12-28T22:36:48;2.67;88.08
69589;SHT31;56792;50.644;17.984;2023-12-28T22:39:19;2.78;88.10
69589;SHT31;56792;50.644;17.984;2023-12-28T22:41:50;2.86;88.21
69589;SHT31;56792;50.644;17.984;2023-12-28T22:44:21;2.96;88.11
69589;SHT31;56792;50.644;17.984;2023-12-28T22:46:52;3.05;88.12
69589;SHT31;56792;50.644;17.984;2023-12-28T22:49:23;3.11;88.06
69589;SHT31;56792;50.644;17.984;2023-12-28T22:51:54;3.15;88.09
69589;SHT31;56792;50.644;17.984;2023-12-28T22:54:25;3.18;88.05
